Champions Gate, Florida
Current Conditions -  °F | °C
As of 10:50 AM on Tuesday 21 Oct 2014 (Local Time) from KISM Reporting Station
Clear Clear  
Wind Chill: 75°   Ceiling: Unl
Heat Index: 75°   Visibility: 8mi
Dew Point: 72°   Wind: 0mph
Humidity: 89%   Direction: NA
Pressure: 29.99"   Gusts: NA
Location:  28.2515°N, 81.6002°W
Report Text: KISM 211450Z 00000KT 8SM SKC 24/22 A2999
Loading
Personal Weather Stations






























Interactive Weather Map
Tropical Storm Tracking
New forecast layout! Learn more

10-Day Weather Forecast

Advertisements
Track Severe Weather on mobile